This is the latest recevied weather packets stored in our database for station/object HI3R-13. If no packets are shown the sender has not sent any weather packets the latest 10 day(s).
| Time | Temp. | Humidity | Pressure | Rain* | Wind** | Luminosity | Snow |
|---|---|---|---|---|---|---|---|
| 1777719018 | 22.78° C | 88% | 986.4 hPa | 0 mm | - | - | - |
| 1777714817 | 22.78° C | 88% | 986.1 hPa | 0 mm | - | - | - |
| 1777713017 | 23.33° C | 87% | 985.9 hPa | 0 mm | - | - | - |
| 1777711817 | 23.33° C | 87% | 985.6 hPa | 0 mm | - | - | - |
| 1777708817 | 23.89° C | 86% | 985.4 hPa | 0 mm | - | - | - |
| 1777707017 | 23.89° C | 84% | 985.3 hPa | 0 mm | - | - | - |
| 1777700417 | 23.89° C | 81% | 985.9 hPa | 0 mm | - | - | - |
| 1777696216 | 24.44° C | 80% | 986.5 hPa | 0 mm | - | - | - |
| 1777694416 | 24.44° C | 79% | 986.7 hPa | 0 mm | - | - | - |
| 1777690817 | 25° C | 79% | 986.5 hPa | 0 mm | - | - | - |
| 1777690217 | 25° C | 78% | 986.5 hPa | 0 mm | - | - | - |
| 1777687817 | 25.56° C | 79% | 986.2 hPa | 0 mm | - | - | - |
| 1777686617 | 25.56° C | 78% | 986 hPa | 0 mm | - | - | - |
| 1777685417 | 26.11° C | 77% | 986 hPa | 0 mm | - | - | - |
| 1777683017 | 25.56° C | 77% | 985.4 hPa | 0 mm | - | - | - |
| 1777676717 | 27.22° C | 71% | 984.3 hPa | 0 mm | - | - | - |
| 1777676118 | 27.22° C | 70% | 983.9 hPa | 0 mm | - | - | - |
| 1777672517 | 29.44° C | 61% | 983.4 hPa | 0 mm | - | - | - |
| 1777671317 | 30° C | 58% | 983.4 hPa | 0 mm | - | - | - |
| 1777669517 | 30.56° C | 56% | 983 hPa | 0 mm | - | - | - |
| 1777665917 | 31.67° C | 54% | 983.2 hPa | 0 mm | - | - | - |
| 1777662917 | 32.22° C | 49% | 983.5 hPa | 0 mm | - | - | - |
| 1777658717 | 31.11° C | 51% | 984.4 hPa | 0 mm | - | - | - |
| 1777658117 | 31.11° C | 52% | 984.8 hPa | 0 mm | - | - | - |
| 1777649116 | 28.89° C | 63% | 986.2 hPa | 0 mm | - | - | - |
* Rain latest hour (hover to see other rain measurements)
** Current wind speed in m/s (hover to see current wind gust speed)